Time;durP1;ratioP1;P1;durP2;ratioP2;P2;SDS_P1;SDS_P2;PMS_P1;PMS_P2;Temp;Humidity;BMP_temperature;BMP_pressure;BME280_temperature;BME280_humidity;BME280_pressure;Samples;Min_cycle;Max_cycle;Signal;HPM_P1;HPM_P2
2023/08/01 00:01:25;;;;;;;5.17;3.20;;;;;;;22.64;70.35;99215.59;5031434;28;20211;-62
2023/08/01 00:03:50;;;;;;;5.70;3.23;;;;;;;22.64;70.88;99211.88;5034105;28;20199;-63
2023/08/01 00:06:16;;;;;;;7.30;3.37;;;;;;;22.63;70.36;99211.06;5038965;28;20186;-63
2023/08/01 00:08:41;;;;;;;5.33;3.03;;;;;;;22.63;70.67;99190.13;5059608;28;20197;-63
2023/08/01 00:11:07;;;;;;;4.90;3.10;;;;;;;22.63;70.43;99188.03;5037282;28;20196;-63
2023/08/01 00:13:32;;;;;;;5.50;3.27;;;;;;;22.63;70.69;99179.41;5036542;28;20210;-63
2023/08/01 00:15:58;;;;;;;6.47;3.13;;;;;;;22.63;70.73;99182.28;5037290;28;20238;-63
2023/08/01 00:18:23;;;;;;;4.73;3.03;;;;;;;22.63;70.89;99175.75;5028491;28;20203;-62
2023/08/01 00:20:51;;;;;;;5.53;3.37;;;;;;;22.62;70.39;99177.78;5036280;28;20176;-63
2023/08/01 00:23:17;;;;;;;6.33;3.20;;;;;;;22.62;70.35;99179.88;5048133;28;20982;-63
2023/08/01 00:25:42;;;;;;;6.30;2.77;;;;;;;22.61;70.56;99204.94;5036953;28;20459;-63
2023/08/01 00:28:07;;;;;;;6.60;3.50;;;;;;;22.61;70.67;99207.00;5028200;28;20191;-63
2023/08/01 00:30:33;;;;;;;8.10;3.33;;;;;;;22.61;70.55;99225.09;5030396;28;20181;-62
2023/08/01 00:32:58;;;;;;;6.90;2.93;;;;;;;22.61;70.45;99241.50;5042855;28;20189;-63
2023/08/01 00:35:24;;;;;;;5.47;3.17;;;;;;;22.61;70.53;99244.41;5030869;28;20195;-64
2023/08/01 00:37:49;;;;;;;6.63;3.40;;;;;;;22.59;69.95;99244.84;5036145;28;20188;-63
2023/08/01 00:40:16;;;;;;;4.73;3.10;;;;;;;22.58;69.77;99243.19;5028188;28;20306;-63
2023/08/01 00:42:41;;;;;;;5.60;3.33;;;;;;;22.58;69.50;99231.69;5029176;28;21276;-63
2023/08/01 00:45:08;;;;;;;4.70;3.00;;;;;;;22.57;69.94;99218.56;5039462;28;20439;-63
2023/08/01 00:47:33;;;;;;;6.13;3.20;;;;;;;22.58;69.82;99222.25;5030019;28;20192;-62
2023/08/01 00:49:59;;;;;;;5.40;2.73;;;;;;;22.56;69.79;99211.19;5039423;28;21028;-63
2023/08/01 00:52:24;;;;;;;6.33;3.40;;;;;;;22.57;70.05;99212.81;5028736;28;20706;-62
2023/08/01 00:54:50;;;;;;;6.70;3.60;;;;;;;22.57;69.63;99206.25;5036450;28;20195;-64
2023/08/01 00:57:15;;;;;;;5.63;3.07;;;;;;;22.57;69.82;99177.50;5028695;28;20191;-63
2023/08/01 00:59:41;;;;;;;5.40;3.10;;;;;;;22.56;69.87;99165.16;5030659;28;20195;-63
2023/08/01 01:02:06;;;;;;;6.23;3.27;;;;;;;22.56;70.04;99161.44;5040147;28;20218;-63
2023/08/01 01:04:32;;;;;;;5.73;3.43;;;;;;;22.56;70.08;99152.81;5038245;28;20187;-62
2023/08/01 01:07:00;;;;;;;7.63;3.20;;;;;;;22.56;70.29;99155.69;5044997;28;20465;-63
2023/08/01 01:09:28;;;;;;;5.77;3.73;;;;;;;22.55;70.40;99145.44;5030745;28;20618;-62
2023/08/01 01:11:53;;;;;;;5.97;3.23;;;;;;;22.55;70.10;99152.03;5031637;28;20427;-63
2023/08/01 01:14:19;;;;;;;5.27;3.60;;;;;;;22.55;70.29;99134.78;5033667;28;20478;-63
2023/08/01 01:16:44;;;;;;;7.20;3.83;;;;;;;22.55;70.57;99129.00;5031736;28;20192;-62
2023/08/01 01:19:10;;;;;;;7.33;3.10;;;;;;;22.54;70.41;99143.81;5032621;28;20765;-63
2023/08/01 01:21:35;;;;;;;5.13;3.13;;;;;;;22.54;70.62;99136.03;5031952;28;20574;-63
2023/08/01 01:24:02;;;;;;;5.60;3.40;;;;;;;22.54;70.53;99118.75;5023121;28;20188;-63
2023/08/01 01:26:28;;;;;;;6.77;3.50;;;;;;;22.54;70.58;99118.75;5048143;28;20264;-63
2023/08/01 01:28:53;;;;;;;5.07;3.37;;;;;;;22.54;70.30;99127.41;5033120;28;20854;-63
2023/08/01 01:31:19;;;;;;;6.17;3.37;;;;;;;22.54;70.57;99138.06;5045760;28;20930;-62
2023/08/01 01:33:44;;;;;;;5.37;3.30;;;;;;;22.54;70.85;99141.78;5031324;28;20644;-63
2023/08/01 01:36:10;;;;;;;6.00;3.77;;;;;;;22.53;70.12;99137.25;5032658;28;20176;-63
2023/08/01 01:38:35;;;;;;;6.10;3.50;;;;;;;22.54;70.53;99138.06;5050470;28;20172;-63
2023/08/01 01:41:00;;;;;;;5.97;3.60;;;;;;;22.54;70.42;99123.69;5036626;28;20193;-63
2023/08/01 01:43:26;;;;;;;5.17;3.50;;;;;;;22.53;70.40;99111.34;5032308;28;20202;-64
2023/08/01 01:45:51;;;;;;;6.40;3.87;;;;;;;22.54;70.30;99100.69;5044104;28;20183;-63
2023/08/01 01:48:17;;;;;;;6.73;3.97;;;;;;;22.52;70.65;99083.84;5029206;28;20200;-63
2023/08/01 01:50:42;;;;;;;6.03;3.97;;;;;;;22.53;70.27;99073.16;5030047;28;20224;-63
2023/08/01 01:53:08;;;;;;;5.97;3.10;;;;;;;22.52;70.18;99077.31;5047585;28;20237;-63
2023/08/01 01:55:34;;;;;;;6.10;3.17;;;;;;;22.51;70.58;99085.09;5039746;28;20184;-63
2023/08/01 01:57:59;;;;;;;8.60;4.23;;;;;;;22.52;70.43;99080.97;5032690;28;20203;-63
2023/08/01 02:00:25;;;;;;;6.60;3.27;;;;;;;22.52;70.26;99083.84;5032239;28;20447;-63
2023/08/01 02:02:50;;;;;;;6.40;4.03;;;;;;;22.51;70.45;99082.22;5031217;28;20212;-63
2023/08/01 02:05:16;;;;;;;5.93;4.00;;;;;;;22.51;70.60;99076.47;5032468;28;20640;-63
2023/08/01 02:07:41;;;;;;;5.60;3.80;;;;;;;22.51;70.84;99070.72;5044632;28;20499;-63
2023/08/01 02:10:07;;;;;;;6.50;3.43;;;;;;;22.51;70.83;99079.34;5047468;28;20191;-64
2023/08/01 02:12:34;;;;;;;6.63;4.27;;;;;;;22.51;70.78;99082.22;5047515;28;20188;-63
2023/08/01 02:15:00;;;;;;;6.13;3.17;;;;;;;22.51;70.47;99075.66;5047659;28;20631;-62
2023/08/01 02:17:25;;;;;;;9.20;3.50;;;;;;;22.50;70.50;99077.72;5039034;28;20453;-63
2023/08/01 02:19:51;;;;;;;5.37;3.40;;;;;;;22.51;70.37;99073.59;5044918;28;20203;-63
2023/08/01 02:22:17;;;;;;;5.80;3.30;;;;;;;22.50;70.23;99074.84;5030424;28;20200;-63
2023/08/01 02:24:42;;;;;;;6.23;3.40;;;;;;;22.50;70.20;99086.38;5047413;28;20600;-63
2023/08/01 02:27:07;;;;;;;7.43;3.23;;;;;;;22.50;70.07;99074.03;5044867;28;20271;-63
2023/08/01 02:29:33;;;;;;;8.27;3.90;;;;;;;22.50;70.34;99074.84;5033740;28;20197;-62
2023/08/01 02:31:59;;;;;;;6.43;3.30;;;;;;;22.49;70.19;99073.22;5045376;28;20187;-63
2023/08/01 02:34:24;;;;;;;6.77;3.60;;;;;;;22.49;70.07;99060.91;5031087;28;20203;-63
2023/08/01 02:36:50;;;;;;;6.30;3.67;;;;;;;22.49;69.89;99060.91;5034577;28;20608;-62
2023/08/01 02:39:15;;;;;;;5.13;3.07;;;;;;;22.49;69.83;99052.28;5042485;28;20640;-62
2023/08/01 02:41:41;;;;;;;9.57;3.60;;;;;;;22.48;70.20;99059.28;5047769;28;20206;-63
2023/08/01 02:44:06;;;;;;;7.90;4.20;;;;;;;22.47;70.36;99052.72;5047411;28;20627;-62
2023/08/01 02:46:31;;;;;;;5.93;3.10;;;;;;;22.48;69.91;99065.84;5040769;28;20187;-62
2023/08/01 02:48:57;;;;;;;6.10;3.47;;;;;;;22.47;70.31;99067.09;5054677;28;20643;-63
2023/08/01 02:51:22;;;;;;;7.27;3.93;;;;;;;22.47;69.80;99072.84;5051197;28;20631;-62
2023/08/01 02:53:48;;;;;;;5.77;3.30;;;;;;;22.47;69.58;99069.16;5041180;28;20190;-63
2023/08/01 02:56:13;;;;;;;5.57;3.40;;;;;;;22.47;70.09;99074.94;5034127;28;20192;-63
2023/08/01 02:58:39;;;;;;;6.10;3.27;;;;;;;22.47;69.88;99077.81;5028692;28;20227;-62
2023/08/01 03:01:09;;;;;;;5.70;3.37;;;;;;;22.46;70.22;99079.84;5032257;28;20214;-62
2023/08/01 03:03:35;;;;;;;6.53;3.60;;;;;;;22.46;69.75;99074.09;5046663;28;20554;-62
2023/08/01 03:06:01;;;;;;;7.93;4.77;;;;;;;22.46;69.63;99071.22;5046774;28;20430;-63
2023/08/01 03:08:26;;;;;;;5.00;3.30;;;;;;;22.45;70.01;99072.47;5032086;28;20798;-62
2023/08/01 03:10:54;;;;;;;5.30;3.60;;;;;;;22.45;69.75;99072.47;5029532;28;20171;-63
2023/08/01 03:13:19;;;;;;;5.30;3.37;;;;;;;22.47;69.82;99069.16;5029523;28;20256;-63
2023/08/01 03:15:45;;;;;;;5.33;3.50;;;;;;;22.44;69.98;99059.34;5038144;28;20441;-62
2023/08/01 03:18:10;;;;;;;5.03;3.20;;;;;;;22.44;70.28;99067.97;5066555;28;20182;-62
2023/08/01 03:20:36;;;;;;;5.70;3.10;;;;;;;22.45;69.53;99060.16;5044265;28;20552;-63
2023/08/01 03:23:01;;;;;;;7.97;4.13;;;;;;;22.46;70.08;99030.13;5032613;28;20208;-62
2023/08/01 03:25:27;;;;;;;7.07;3.53;;;;;;;22.43;69.90;99003.03;5034399;28;20651;-62
2023/08/01 03:27:54;;;;;;;6.20;3.70;;;;;;;22.43;70.28;98939.75;5032127;28;20196;-63
2023/08/01 03:30:20;;;;;;;5.80;3.40;;;;;;;22.45;69.36;98907.72;5028435;28;20207;-63
2023/08/01 03:32:46;;;;;;;6.20;3.70;;;;;;;22.44;69.57;98921.31;5033528;28;20492;-63
2023/08/01 03:35:13;;;;;;;5.93;3.63;;;;;;;22.43;69.42;98902.34;5032390;28;20455;-63
2023/08/01 03:37:39;;;;;;;6.30;3.80;;;;;;;22.43;69.76;98896.59;5042928;28;20481;-63
2023/08/01 03:40:08;;;;;;;7.50;3.17;;;;;;;22.42;69.51;98900.75;5042160;28;20434;-63
2023/08/01 03:42:34;;;;;;;5.93;3.47;;;;;;;22.44;69.45;98903.19;5045647;28;20204;-63
2023/08/01 03:44:59;;;;;;;8.73;4.00;;;;;;;22.43;69.40;98901.56;5042990;28;21322;-62
2023/08/01 03:47:25;;;;;;;5.53;3.43;;;;;;;22.43;69.18;98878.56;5044818;28;20191;-63
2023/08/01 03:49:50;;;;;;;6.80;3.30;;;;;;;22.42;69.86;98825.97;5046629;28;20240;-64
2023/08/01 03:52:16;;;;;;;7.10;3.60;;;;;;;22.43;69.06;98781.56;5029697;28;20188;-63
2023/08/01 03:54:41;;;;;;;5.33;2.90;;;;;;;22.42;69.39;98794.34;5038979;28;20183;-63
2023/08/01 03:57:07;;;;;;;4.40;3.23;;;;;;;22.42;68.71;98782.84;5027686;28;20184;-62
2023/08/01 03:59:32;;;;;;;7.80;3.70;;;;;;;22.40;69.17;98805.47;5035998;28;20195;-62
2023/08/01 04:01:57;;;;;;;6.83;3.10;;;;;;;22.41;69.28;98861.75;5036920;28;20707;-62
2023/08/01 04:04:23;;;;;;;6.70;3.10;;;;;;;22.40;68.69;98920.53;5031310;28;20822;-63
2023/08/01 04:06:48;;;;;;;6.80;3.27;;;;;;;22.40;69.01;98974.34;5045614;28;20673;-62
2023/08/01 04:09:14;;;;;;;6.67;3.80;;;;;;;22.39;68.58;98984.22;5040064;28;20543;-63
2023/08/01 04:11:39;;;;;;;5.87;3.07;;;;;;;22.36;68.77;98977.28;5036811;28;20501;-63
2023/08/01 04:14:05;;;;;;;8.10;3.10;;;;;;;22.35;68.95;98963.34;5034795;28;20192;-63
2023/08/01 04:16:30;;;;;;;5.60;3.43;;;;;;;22.35;68.60;98990.03;5031707;28;20188;-63
2023/08/01 04:18:56;;;;;;;7.83;3.70;;;;;;;22.35;68.55;98987.16;5047132;28;20188;-63
2023/08/01 04:21:21;;;;;;;7.43;3.90;;;;;;;22.35;68.80;98992.91;5031660;28;20180;-62
2023/08/01 04:23:47;;;;;;;8.70;4.30;;;;;;;22.36;68.85;98999.47;5027997;28;20172;-62
2023/08/01 04:26:12;;;;;;;6.73;3.57;;;;;;;22.35;69.27;98995.78;5032911;28;20177;-62
2023/08/01 04:28:38;;;;;;;5.23;3.20;;;;;;;22.35;69.08;98992.91;5027741;28;20218;-63
2023/08/01 04:31:03;;;;;;;6.30;3.80;;;;;;;22.36;69.25;98994.53;5039679;28;20549;-63
2023/08/01 04:33:28;;;;;;;5.20;3.10;;;;;;;22.35;68.93;98990.03;5035634;28;20277;-63
2023/08/01 04:35:54;;;;;;;6.03;4.10;;;;;;;22.36;69.48;98994.53;5040755;28;20187;-63
2023/08/01 04:38:19;;;;;;;6.97;3.80;;;;;;;22.36;69.63;98988.78;5049548;28;20187;-62
2023/08/01 04:40:45;;;;;;;7.10;3.20;;;;;;;22.35;68.92;98981.41;5049982;28;20175;-63
2023/08/01 04:43:11;;;;;;;8.93;4.10;;;;;;;22.36;68.95;98988.78;5056181;28;20204;-62
2023/08/01 04:45:37;;;;;;;5.70;3.23;;;;;;;22.35;68.79;98989.22;5043435;28;20184;-63
2023/08/01 04:48:02;;;;;;;5.90;3.37;;;;;;;22.35;69.06;98992.91;5039715;28;20450;-62
2023/08/01 04:50:28;;;;;;;6.50;3.70;;;;;;;22.35;69.26;98994.97;5051243;28;20251;-62
2023/08/01 04:52:53;;;;;;;7.37;3.90;;;;;;;22.36;68.46;98993.72;5038852;28;20179;-63
2023/08/01 04:55:19;;;;;;;6.67;3.90;;;;;;;22.35;68.79;98992.09;5042072;28;20188;-63
2023/08/01 04:57:44;;;;;;;6.27;3.10;;;;;;;22.34;68.83;98991.31;5030450;28;20176;-62
2023/08/01 05:00:10;;;;;;;6.10;3.83;;;;;;;22.34;69.07;98978.97;5029120;28;20160;-62
2023/08/01 05:02:35;;;;;;;6.57;3.80;;;;;;;22.34;69.36;98985.56;5043143;28;20299;-63
2023/08/01 05:05:01;;;;;;;6.27;3.40;;;;;;;22.34;69.43;98982.66;5029681;28;20738;-62
2023/08/01 05:07:26;;;;;;;9.73;4.43;;;;;;;22.34;68.91;98968.28;5033888;28;20195;-63
2023/08/01 05:09:52;;;;;;;8.23;4.30;;;;;;;22.33;69.32;98963.78;5059109;28;20182;-62
2023/08/01 05:12:17;;;;;;;6.70;3.90;;;;;;;22.34;69.19;98970.34;5038468;28;20187;-63
2023/08/01 05:14:43;;;;;;;8.10;4.37;;;;;;;22.34;69.04;98961.72;5033196;28;20189;-63
2023/08/01 05:17:08;;;;;;;8.50;3.97;;;;;;;22.33;68.85;98960.91;5030742;28;20184;-62
2023/08/01 05:19:33;;;;;;;8.03;3.73;;;;;;;22.33;69.39;98955.16;5033251;28;20188;-63
2023/08/01 05:21:59;;;;;;;8.33;4.27;;;;;;;22.34;68.89;98941.59;5040758;28;20991;-62
2023/08/01 05:24:24;;;;;;;8.33;4.57;;;;;;;22.33;69.21;98931.34;5039253;28;20982;-63
2023/08/01 05:26:50;;;;;;;6.27;3.80;;;;;;;22.34;68.92;98932.97;5035578;28;20542;-62
2023/08/01 05:29:15;;;;;;;8.00;4.40;;;;;;;22.34;69.48;98938.72;5039037;28;20180;-62
2023/08/01 05:31:41;;;;;;;6.47;3.70;;;;;;;22.34;68.68;98953.91;5043643;28;20172;-63
2023/08/01 05:34:06;;;;;;;8.40;3.90;;;;;;;22.32;69.02;98955.59;5040044;28;20187;-63
2023/08/01 05:36:31;;;;;;;7.40;3.50;;;;;;;22.33;69.38;98949.38;5036704;28;20194;-63
2023/08/01 05:38:57;;;;;;;7.20;4.53;;;;;;;22.32;68.73;98944.91;5041582;28;20595;-64
2023/08/01 05:41:23;;;;;;;8.53;3.87;;;;;;;22.32;69.21;98944.91;5035431;28;20259;-62
2023/08/01 05:43:48;;;;;;;10.00;4.37;;;;;;;22.31;68.79;98954.78;5039825;28;20199;-62
2023/08/01 05:46:14;;;;;;;8.77;3.77;;;;;;;22.32;68.83;98952.72;5037069;28;20695;-63
2023/08/01 05:48:39;;;;;;;9.90;4.23;;;;;;;22.33;69.37;98963.78;5040794;28;20553;-62
2023/08/01 05:51:05;;;;;;;9.87;4.43;;;;;;;22.31;68.88;98954.78;5036343;28;20192;-62
2023/08/01 05:53:30;;;;;;;7.20;3.93;;;;;;;22.32;69.32;98964.22;5038973;28;20172;-62
2023/08/01 05:55:56;;;;;;;14.07;4.30;;;;;;;22.32;69.25;98950.66;5038117;28;20185;-62
2023/08/01 05:58:21;;;;;;;9.07;4.20;;;;;;;22.50;69.77;98954.03;5038327;28;20223;-62
2023/08/01 06:00:47;;;;;;;9.13;4.60;;;;;;;22.72;70.94;98963.06;5028181;28;20242;-62
2023/08/01 06:03:12;;;;;;;12.93;6.70;;;;;;;23.01;71.99;98964.09;5038416;28;20208;-63
2023/08/01 06:05:38;;;;;;;20.07;6.37;;;;;;;22.89;71.66;98968.47;5038304;28;20457;-62
2023/08/01 06:08:05;;;;;;;19.10;6.60;;;;;;;22.83;72.24;98972.31;5037504;28;20184;-62
2023/08/01 06:10:30;;;;;;;12.40;5.40;;;;;;;22.76;70.77;98979.00;5047446;28;20190;-62
2023/08/01 06:12:56;;;;;;;8.37;5.13;;;;;;;22.71;70.53;98975.81;5037647;28;20466;-62
2023/08/01 06:15:22;;;;;;;8.13;4.70;;;;;;;22.72;70.36;98971.72;5040766;28;20244;-61
2023/08/01 06:17:47;;;;;;;10.13;4.77;;;;;;;22.70;69.83;98969.25;5044023;28;20202;-60
2023/08/01 06:20:13;;;;;;;11.90;5.50;;;;;;;22.72;69.96;98958.13;5045928;28;20196;-61
2023/08/01 06:22:38;;;;;;;9.73;4.73;;;;;;;22.72;69.59;98954.44;5028529;28;20193;-61
2023/08/01 06:25:04;;;;;;;9.57;3.97;;;;;;;22.72;69.80;98946.59;5038181;28;20663;-62
2023/08/01 06:27:29;;;;;;;10.07;4.70;;;;;;;22.69;69.60;98947.50;5043570;28;20588;-62
2023/08/01 06:29:55;;;;;;;10.57;5.27;;;;;;;22.68;69.71;98937.22;5045606;28;20573;-61
2023/08/01 06:32:20;;;;;;;11.90;5.30;;;;;;;22.83;69.37;98943.53;5038330;28;20184;-61
2023/08/01 06:34:46;;;;;;;12.40;4.73;;;;;;;22.74;69.36;98944.13;5033978;28;20184;-61
2023/08/01 06:37:11;;;;;;;12.30;4.33;;;;;;;22.73;69.46;98956.06;5043942;28;20246;-60
2023/08/01 06:39:37;;;;;;;8.10;4.27;;;;;;;22.73;69.33;98953.19;5044184;28;20183;-61
2023/08/01 06:42:03;;;;;;;7.50;4.27;;;;;;;22.76;68.91;98955.97;5046056;28;20200;-61
2023/08/01 06:44:28;;;;;;;6.43;4.33;;;;;;;22.78;68.89;98961.31;5049749;28;20180;-62
2023/08/01 06:46:53;;;;;;;10.03;4.93;;;;;;;22.76;69.12;98966.66;5037611;28;21016;-62
2023/08/01 06:49:19;;;;;;;22.10;9.80;;;;;;;22.74;71.00;98964.25;5049715;28;20235;-62
2023/08/01 06:51:44;;;;;;;14.93;5.30;;;;;;;22.76;70.85;98961.75;5031870;28;20168;-62
2023/08/01 06:54:10;;;;;;;12.77;5.40;;;;;;;22.77;70.42;98966.22;5046855;28;20233;-62
2023/08/01 06:56:35;;;;;;;10.67;4.87;;;;;;;22.73;70.30;98971.25;5045043;28;20190;-62
2023/08/01 06:59:01;;;;;;;8.23;4.40;;;;;;;22.69;69.37;98984.09;5031774;28;20191;-61
2023/08/01 07:01:26;;;;;;;10.60;4.87;;;;;;;22.66;69.38;98968.53;5034671;28;20186;-62
2023/08/01 07:03:52;;;;;;;7.77;4.87;;;;;;;22.65;69.82;98975.53;5035608;28;20199;-61
2023/08/01 07:06:18;;;;;;;7.73;4.30;;;;;;;22.65;69.83;98977.59;5047731;28;20191;-62
2023/08/01 07:08:43;;;;;;;8.70;4.50;;;;;;;22.63;69.95;98980.91;5035979;28;20183;-62
2023/08/01 07:11:08;;;;;;;8.97;4.27;;;;;;;22.60;70.49;98978.09;5038724;28;20695;-62
2023/08/01 07:13:34;;;;;;;10.43;5.00;;;;;;;22.62;70.61;98979.28;5040853;28;20194;-62
2023/08/01 07:15:59;;;;;;;9.10;4.53;;;;;;;22.65;71.16;98995.66;5049212;28;20176;-62
2023/08/01 07:18:25;;;;;;;10.93;4.50;;;;;;;22.68;71.11;98996.84;5039845;28;20228;-61
2023/08/01 07:21:03;;;;;;;8.90;4.60;;;;;;;22.68;71.11;98988.22;5028723;28;20184;-63
2023/08/01 07:23:29;;;;;;;9.03;4.60;;;;;;;22.67;71.16;98996.03;5038646;28;20200;-62
2023/08/01 07:25:54;;;;;;;13.73;4.60;;;;;;;22.66;71.07;98994.41;5034711;28;21156;-61
2023/08/01 07:28:20;;;;;;;8.37;4.33;;;;;;;22.66;70.85;98994.41;5028189;28;20173;-62
2023/08/01 07:30:45;;;;;;;6.83;4.20;;;;;;;22.66;70.86;98996.47;5030341;28;20192;-63
2023/08/01 07:33:11;;;;;;;8.50;4.27;;;;;;;22.65;70.71;99004.31;5042358;28;20187;-61
2023/08/01 07:35:36;;;;;;;9.20;4.50;;;;;;;22.65;71.24;99004.31;5044110;28;20190;-63
2023/08/01 07:38:01;;;;;;;7.23;4.00;;;;;;;22.65;71.25;99007.19;5027416;28;20188;-63
2023/08/01 07:40:27;;;;;;;11.03;4.47;;;;;;;22.65;71.17;99006.34;5046687;28;20195;-61
2023/08/01 07:42:52;;;;;;;7.60;3.97;;;;;;;22.65;71.06;99006.34;5048669;28;20196;-62
2023/08/01 07:45:19;;;;;;;8.37;4.17;;;;;;;22.64;71.41;99014.19;5048876;28;20176;-61
2023/08/01 07:47:44;;;;;;;7.73;4.40;;;;;;;22.64;70.99;99013.38;5040860;28;20214;-61
2023/08/01 07:50:10;;;;;;;12.80;4.93;;;;;;;22.63;71.34;99015.41;5042419;28;20856;-63
2023/08/01 07:52:36;;;;;;;6.23;4.00;;;;;;;22.61;71.02;99017.94;5029065;28;20211;-61
2023/08/01 07:55:01;;;;;;;7.57;4.33;;;;;;;22.62;70.91;99022.44;5032298;28;20188;-61
2023/08/01 07:57:27;;;;;;;10.20;3.67;;;;;;;22.62;71.04;99031.06;5028861;28;20176;-63
2023/08/01 07:59:52;;;;;;;9.50;5.33;;;;;;;22.61;71.54;99023.69;5034212;28;20202;-63
2023/08/01 08:02:18;;;;;;;7.23;3.80;;;;;;;22.61;71.26;99014.22;5043756;28;20207;-62
2023/08/01 08:04:43;;;;;;;7.37;3.90;;;;;;;22.61;71.40;99020.81;5042420;28;20195;-62
2023/08/01 08:07:08;;;;;;;8.23;3.83;;;;;;;22.61;71.27;99017.94;5028271;28;20175;-62
2023/08/01 08:09:34;;;;;;;8.10;4.20;;;;;;;22.61;71.05;99017.94;5029111;28;20646;-63
2023/08/01 08:11:59;;;;;;;7.23;4.30;;;;;;;22.61;71.02;99017.09;5037986;28;20630;-62
2023/08/01 08:14:25;;;;;;;7.33;4.07;;;;;;;22.60;70.88;99030.69;5029598;28;20655;-62
2023/08/01 08:16:50;;;;;;;7.70;3.60;;;;;;;22.60;71.16;99024.13;5037762;28;20223;-61
2023/08/01 08:19:16;;;;;;;6.80;4.23;;;;;;;22.59;71.29;99031.13;5041627;28;20183;-63
2023/08/01 08:21:41;;;;;;;7.10;3.73;;;;;;;22.59;71.00;99031.97;5049482;28;20222;-61
2023/08/01 08:24:07;;;;;;;7.37;3.70;;;;;;;22.58;71.03;99041.03;5041592;28;20214;-62
2023/08/01 08:26:37;;;;;;;7.60;3.80;;;;;;;22.56;70.81;99047.22;5029695;28;20191;-61
2023/08/01 08:29:02;;;;;;;7.40;3.93;;;;;;;22.56;70.67;99046.38;5045596;28;20233;-61
2023/08/01 08:31:28;;;;;;;11.77;4.00;;;;;;;22.56;71.18;99055.00;5036121;28;20442;-62
2023/08/01 08:33:53;;;;;;;6.67;3.83;;;;;;;22.56;71.53;99061.59;5046383;28;20180;-62
2023/08/01 08:36:19;;;;;;;5.13;3.20;;;;;;;22.56;70.85;99064.47;5048208;28;20188;-63
2023/08/01 08:38:44;;;;;;;5.17;3.47;;;;;;;22.55;71.30;99064.91;5042832;28;20258;-62
2023/08/01 08:41:20;;;;;;;9.17;3.83;;;;;;;22.55;71.34;99076.41;5046088;28;20171;-63
2023/08/01 08:43:45;;;;;;;6.60;3.60;;;;;;;22.54;71.22;99087.13;5027102;28;20626;-61
2023/08/01 08:46:12;;;;;;;7.20;3.40;;;;;;;22.55;71.30;99087.91;5053628;28;20430;-61
2023/08/01 08:48:38;;;;;;;10.50;4.30;;;;;;;22.52;71.52;99121.25;5020941;28;20215;-62
2023/08/01 08:51:03;;;;;;;5.57;3.20;;;;;;;22.52;71.48;99101.09;5034602;28;20466;-61
2023/08/01 08:53:30;;;;;;;4.83;2.87;;;;;;;22.52;71.08;99089.59;5030868;28;20180;-61
2023/08/01 08:55:56;;;;;;;8.03;3.10;;;;;;;22.53;71.28;99096.19;5039562;28;20192;-61
2023/08/01 08:58:21;;;;;;;6.93;3.70;;;;;;;22.50;70.79;99097.03;5029262;28;20501;-61
2023/08/01 09:00:47;;;;;;;5.00;3.13;;;;;;;22.50;71.64;99089.25;5048517;28;20175;-62
2023/08/01 09:03:12;;;;;;;6.30;3.07;;;;;;;22.50;71.33;99097.88;5036574;28;20288;-61
2023/08/01 09:05:43;;;;;;;5.20;2.83;;;;;;;22.49;71.62;99096.25;5031662;28;20192;-61
2023/08/01 09:08:13;;;;;;;6.80;2.93;;;;;;;22.50;70.75;99097.88;5036053;28;20219;-62
2023/08/01 09:10:38;;;;;;;5.40;2.77;;;;;;;22.48;70.72;99100.34;5026133;28;20408;-62
2023/08/01 09:13:03;;;;;;;5.40;3.07;;;;;;;22.49;71.34;99106.94;5037722;28;20446;-61
2023/08/01 09:15:29;;;;;;;4.40;2.63;;;;;;;22.48;71.00;99106.09;5046920;28;20184;-63
2023/08/01 09:18:00;;;;;;;5.00;3.00;;;;;;;22.48;71.28;99111.06;5047630;28;20179;-61
2023/08/01 09:20:28;;;;;;;5.40;2.77;;;;;;;22.47;71.10;99115.97;5045100;28;20180;-62
2023/08/01 09:22:54;;;;;;;5.13;2.90;;;;;;;22.48;71.40;99116.81;5046599;28;20922;-62
2023/08/01 09:25:19;;;;;;;4.90;2.10;;;;;;;22.47;71.39;99121.75;5051350;28;20437;-62
2023/08/01 09:27:45;;;;;;;4.87;2.33;;;;;;;22.46;71.15;99125.88;5041380;28;20195;-61
2023/08/01 09:30:13;;;;;;;3.93;2.33;;;;;;;22.47;71.00;99126.69;5031855;28;20909;-62
2023/08/01 09:32:39;;;;;;;4.33;2.03;;;;;;;22.46;70.56;99131.63;5045344;28;20172;-62
2023/08/01 09:35:05;;;;;;;3.90;2.10;;;;;;;22.46;70.58;99142.31;5031413;28;20499;-62
2023/08/01 09:37:41;;;;;;;5.47;1.80;;;;;;;22.47;70.54;99146.84;5031660;28;20977;-61
2023/08/01 09:40:07;;;;;;;3.80;2.00;;;;;;;22.44;70.31;99139.88;5031760;28;20269;-61
2023/08/01 09:42:45;;;;;;;4.57;2.50;;;;;;;22.46;70.19;99148.06;5034597;28;20462;-62
2023/08/01 09:45:17;;;;;;;3.27;1.77;;;;;;;22.44;69.86;99145.63;5031028;28;20938;-61
2023/08/01 09:47:43;;;;;;;3.60;1.90;;;;;;;22.44;70.10;99147.66;5030538;28;20479;-62
2023/08/01 09:50:19;;;;;;;3.40;1.53;;;;;;;22.41;69.81;99134.13;5036845;28;20474;-62
2023/08/01 09:52:52;;;;;;;4.00;1.90;;;;;;;22.43;69.82;99148.91;5046679;28;20441;-62
2023/08/01 09:55:18;;;;;;;4.43;1.90;;;;;;;22.43;70.14;99146.84;5038595;28;20425;-62
2023/08/01 09:57:43;;;;;;;3.03;1.27;;;;;;;22.44;69.73;99156.28;5033945;28;21127;-62
2023/08/01 10:00:09;;;;;;;3.20;1.83;;;;;;;22.45;70.16;99166.56;5030367;28;20482;-61
2023/08/01 10:02:35;;;;;;;3.10;1.73;;;;;;;22.44;70.62;99160.03;5032742;28;20217;-62
2023/08/01 10:05:00;;;;;;;3.00;1.63;;;;;;;22.44;70.09;99165.78;5029857;28;20197;-63
2023/08/01 10:07:27;;;;;;;3.40;1.47;;;;;;;22.43;70.53;99178.47;5031457;28;20194;-63
2023/08/01 10:09:55;;;;;;;3.40;1.70;;;;;;;22.44;70.24;99170.66;5002542;28;20194;-62
2023/08/01 10:12:20;;;;;;;4.57;2.10;;;;;;;22.43;70.16;99177.69;5027437;28;20426;-63
2023/08/01 10:14:46;;;;;;;2.83;1.57;;;;;;;22.43;70.15;99184.22;5031519;28;20785;-62
2023/08/01 10:17:11;;;;;;;3.63;1.53;;;;;;;22.43;69.94;99183.44;5035793;28;20194;-62
2023/08/01 10:19:37;;;;;;;2.10;1.03;;;;;;;22.41;69.69;99163.72;5048455;28;20180;-62
2023/08/01 10:22:02;;;;;;;3.40;1.60;;;;;;;22.40;70.06;99170.72;5034374;28;20224;-62
2023/08/01 10:24:28;;;;;;;3.93;1.83;;;;;;;22.42;69.63;99165.34;5030104;28;20179;-62
2023/08/01 10:26:53;;;;;;;5.90;2.67;;;;;;;22.44;69.90;99170.66;5029710;28;20197;-61
2023/08/01 10:29:19;;;;;;;3.97;1.60;;;;;;;22.44;69.50;99180.16;5042043;28;20258;-62
2023/08/01 10:31:52;;;;;;;3.00;1.63;;;;;;;22.44;69.29;99180.16;5055909;28;20192;-61
2023/08/01 10:34:17;;;;;;;2.70;1.60;;;;;;;22.45;69.03;99163.69;5030331;28;20188;-61
2023/08/01 10:36:58;;;;;;;2.27;1.13;;;;;;;22.44;68.96;99160.03;5035400;28;20439;-61
2023/08/01 10:39:24;;;;;;;3.10;1.63;;;;;;;22.43;68.87;99178.47;5029997;28;20179;-61
2023/08/01 10:42:04;;;;;;;2.77;1.53;;;;;;;22.40;69.33;99167.84;5038244;28;20498;-61
2023/08/01 10:44:31;;;;;;;2.77;1.50;;;;;;;22.41;69.37;99166.59;5031042;28;20439;-61
2023/08/01 10:47:03;;;;;;;3.40;1.57;;;;;;;22.40;68.93;99161.28;5034985;28;20517;-61
2023/08/01 10:49:37;;;;;;;2.60;1.30;;;;;;;22.39;68.82;99156.78;5039361;28;20641;-62
2023/08/01 10:52:15;;;;;;;4.90;1.77;;;;;;;22.40;68.53;99162.09;5031869;28;20449;-61
2023/08/01 10:54:41;;;;;;;2.97;1.40;;;;;;;22.40;67.86;99156.34;5043817;28;20426;-62
2023/08/01 10:57:06;;;;;;;2.80;1.23;;;;;;;22.41;68.56;99166.59;5041621;28;20515;-62
2023/08/01 10:59:32;;;;;;;4.27;1.57;;;;;;;22.41;67.73;99163.72;5047983;28;20187;-62
2023/08/01 11:01:58;;;;;;;2.70;1.50;;;;;;;22.39;67.28;99174.84;5038776;28;20204;-61
2023/08/01 11:04:24;;;;;;;2.87;1.37;;;;;;;22.39;67.60;99177.75;5033742;28;20202;-61
2023/08/01 11:06:53;;;;;;;2.40;1.23;;;;;;;22.41;67.70;99180.16;5044039;28;20438;-62
2023/08/01 11:09:20;;;;;;;4.10;1.70;;;;;;;22.40;67.89;99187.16;5027732;28;20198;-61
2023/08/01 11:11:46;;;;;;;5.67;1.80;;;;;;;22.39;67.95;99186.38;5026446;28;20488;-62
2023/08/01 11:14:13;;;;;;;2.60;1.40;;;;;;;22.38;67.69;99206.94;5040338;28;20446;-62
2023/08/01 11:16:39;;;;;;;2.93;1.40;;;;;;;22.39;67.83;99185.53;5033434;28;20435;-61
2023/08/01 11:19:04;;;;;;;3.83;2.17;;;;;;;22.37;67.90;99196.66;5034114;28;20495;-62
2023/08/01 11:21:30;;;;;;;3.37;1.60;;;;;;;22.37;67.43;99196.66;5042115;28;20198;-61
2023/08/01 11:23:56;;;;;;;3.67;1.67;;;;;;;22.37;67.44;99197.47;5043978;28;20184;-61
2023/08/01 11:26:21;;;;;;;2.93;1.50;;;;;;;22.36;67.08;99197.91;5031234;28;20184;-61